Tiempo atmosférico en la estación meteorológica de Liceras, Soria (1150 m.)



Fecha
DESCASC
Temp. máxima en grados centígrados (hora)
DESCASC
Temp. mínima en grados centígrados (hora)
DESCASC
Temp. media en grados centígrados
DESCASC
Racha de viento máxima en m/sg (hora)
DESCASC
Velocidad máxima media en intervalos de 10 minutos(hora)
DESCASC
Precipitaciones diarias en mm
DESCASC
Precipitaciones de 00:00 a 06:00 en mm
DESCASC
Precipitaciones de 06:00 a 12:00 en mm
DESCASC
Precipitaciones de 12:00 a 18:00 en mm
DESCASC
Precipitaciones de 18:00 a 24:00 en mm
DESCASC
04-03-2021 15.7 (12:20) 2.8 (06:20) 9.2 13.33 (18:00) 7.5 (18:00) 2.8 0 0 2.6 0.2
03-03-2021 12.8 (13:50) 2.1 (06:30) 7.5 7.22 (00:30) 3.89 (14:10) 0 0 0 0 0
02-03-2021 12.7 (16:20) 5 (05:10) 8.8 12.22 (01:10) 7.5 (00:50) 0 0 0 0 0
01-03-2021 7.1 (13:50) 4.2 (05:00) 5.6 14.72 (01:00) 11.11 (08:40) 0 0 0 0 0
28-02-2021 9.5 (17:00) 0 (00:00) 4.8 15 (11:10) 9.44 (22:00) 0 0 0 0 0
27-02-2021 15.2 (13:10) 1.2 (00:00) 8.2 6.67 (23:59) 4.72 (08:30) 0 0 0 0 0
26-02-2021 15.2 (16:10) 2.6 (00:00) 8.9 10.28 (12:00) 6.94 (09:10) 0 0 0 0 0
25-02-2021 12.9 (15:50) 4.8 (00:00) 8.8 10 (06:20) 7.5 (06:30) 0 0 0 0 0
24-02-2021 13.4 (12:40) 4.8 (00:00) 9.1 18.06 (14:30) 12.22 (14:30) 0 0 0 0 0
23-02-2021 10.9 (15:00) -1.6 (-00:0) 4.6 10.56 (13:20) 6.94 (23:59) 0.2 0 0 0.2 0
22-02-2021 3.2 (16:30) -0.4 (00:00) 1.4 12.78 (04:00) 9.17 (05:10) 5.4 0.4 0.8 4.2 0
21-02-2021 10.9 (12:10) 0.7 (00:00) 5.8 12.78 (21:30) 8.89 (22:10) 3.4 0 0 0 3.4
20-02-2021 12.2 (14:50) 5.2 (00:00) 8.7 25.28 (11:50) 14.17 (10:30) 0 0 0 0 0
19-02-2021 13.4 (16:00) 5 (00:00) 9.2 14.44 (20:00) 8.61 (18:40) 0 0 0 0 0
18-02-2021 14.2 (13:20) 4.6 (00:00) 9.4 18.61 (15:00) 11.39 (14:00) 0 0 0 0 0
17-02-2021 13.8 (16:00) 5 (00:00) 9.4 11.11 (23:30) 6.39 (23:30) 0 0 0 0 0
16-02-2021 14.7 (14:10) 6.7 (00:00) 10.7 10.28 (01:10) 6.67 (01:50) 0 0 0 0 0
15-02-2021 15.2 (12:10) 3 (00:00) 9.1 12.22 (16:40) 7.5 (17:30) 0 0 0 0 0
14-02-2021 14.5 (16:10) 0.7 (00:00) 7.6 7.5 (18:10) 5 (18:20) 0 0 0 0 0
13-02-2021 9.5 (16:10) 3.1 (00:00) 6.3 11.67 (13:00) 8.06 (13:10) 0 0 0 0 0
12-02-2021 8.8 (01:40) 4.6 (00:00) 6.7 15 (11:00) 10.83 (11:10) 6.4 2.2 3.2 1 0
11-02-2021 11.9 (14:40) 4 (00:00) 7.9 11.11 (12:40) 7.22 (13:20) 0.2 0 0 0.2 0
10-02-2021 7.5 (16:00) 0 (00:00) 3.8 15.83 (07:40) 11.11 (13:00) 9.8 6 3.8 0 0
09-02-2021 6.3 (14:20) -0.1 (00:00) 3.1 22.22 (14:30) 13.61 (14:40) 9.4 1.8 0 3.2 4.4
08-02-2021 5.7 (01:20) 1 (00:00) 3.3 17.5 (16:00) 11.39 (12:40) 8.2 4.8 2 1 0.4
07-02-2021 5 (15:10) -1.2 (-00:0) 1.9 13.61 (18:40) 9.72 (18:40) 1.6 0 0 0.2 1.4
06-02-2021 8.6 (11:10) 2.1 (00:00) 5.4 11.67 (00:10) 6.11 (00:10) 9.2 3.2 0 4.8 1.2
05-02-2021 14 (14:00) 3.8 (00:00) 8.9 12.78 (01:00) 7.22 (01:00) 0 0 0 0 0
04-02-2021 10.5 (16:20) 5.5 (00:00) 8 12.78 (15:30) 8.33 (14:00) 1 0.8 0.2 0 0

Gráficas

Temp. máximas Temp. mínimas Temp. medias Precipitaciones Rachas de viento máximas Velocidades máximas media en intervalos de 10 minutos

Datos horarios

Fecha y hora oficial Temperatura (ºC) Velocidad del viento (km/h) Dirección del viento Racha (km/h) Dirección de racha Precipitación (mm) Presión (hPa) Tendencia (hPa) Humedad (%)
2021-03-05 23:00:00 5.1 17 Sudeste 25 Sudeste 0 -- -- 84
2021-03-05 22:00:00 5.1 14 Sudeste 26 Sudeste 0 -- -- 85
2021-03-05 21:00:00 5.7 18 Sudeste 23 Sudeste 0 -- -- 79
2021-03-05 20:00:00 5.9 12 Sudeste 17 Sudeste 0 -- -- 77
2021-03-05 19:00:00 7.8 12 Sudeste 21 Este 0 -- -- 72
2021-03-05 18:00:00 11 16 Sudeste 23 Sudeste 0 -- -- 61
2021-03-05 17:00:00 12.1 13 Sudeste 26 Sudeste 0 -- -- 56
2021-03-05 16:00:00 12 15 Sudeste 28 Sudeste 0 -- -- 53
2021-03-05 15:00:00 11.4 14 Este 28 Sudeste 0 -- -- 56
2021-03-05 14:00:00 11 18 Sudeste 30 Sudeste 0 -- -- 62
2021-03-05 13:00:00 9.1 22 Sudeste 30 Sudeste 0 -- -- 74
2021-03-05 12:00:00 7.3 23 Este 35 Sudeste 0 -- -- 82
2021-03-05 11:00:00 7.7 16 Sudeste 24 Este 0 -- -- 83
2021-03-05 10:00:00 6 12 Este 19 Este 0 -- -- 91
2021-03-05 09:00:00 4.7 14 Sudeste 23 Sudeste 0 -- -- 91
2021-03-05 08:00:00 1.6 10 Sudeste 16 Sudeste 0 -- -- 95
2021-03-05 07:00:00 1.5 14 Sudeste 18 Sudeste 0 -- -- 95
2021-03-05 06:00:00 2.6 10 Sudeste 14 Sudeste 0 -- -- 95
2021-03-05 05:00:00 3.1 10 Sudeste 12 Sudeste 0 -- -- 94
2021-03-05 04:00:00 2.6 2 Este 14 Este 0 -- -- 92
2021-03-05 03:00:00 3.1 9 Sudeste 15 Sudeste 0 -- -- 90
2021-03-05 02:00:00 3.4 12 Sudeste 16 Sudeste 0 -- -- 91
2021-03-05 01:00:00 3.2 11 Sudeste 18 Sudeste 0 -- -- 91
2021-03-05 00:00:00 5.7 13 Sudeste 16 Sudeste 0 -- -- 83
2021-03-04 23:00:00 4 13 Sudeste 22 Sudeste 0 -- -- 87
2021-03-04 22:00:00 5.7 14 Sudeste 25 Este 0 -- -- 79
2021-03-04 21:00:00 5.8 11 Sudeste 14 Sur 0.2 -- -- 78
2021-03-04 20:00:00 6.8 9 Sur 21 Sur 0 -- -- 72
2021-03-04 19:00:00 8.5 15 Sur 40 Sur 0 -- -- 65
2021-03-04 18:00:00 10.2 27 Sur 48 Sur 0 -- -- 57
2021-03-04 17:00:00 11.4 9 Sudoeste 22 Sudeste 0 -- -- 55
2021-03-04 16:00:00 12 14 Sudeste 20 Sudeste 0 -- -- 62
2021-03-04 15:00:00 11.5 15 Este 27 Este 0.4 -- -- 60
2021-03-04 14:00:00 9.1 12 Noroeste 28 Noroeste 2.2 -- -- 69
2021-03-04 13:00:00 13.5 15 Nordeste 22 Este 0 -- -- 55
2021-03-04 12:00:00 14.5 5 Este 10 Este 0 -- -- 50
2021-03-04 11:00:00 13.7 4 Sudeste 8 Este 0 -- -- 50
2021-03-04 10:00:00 8.6 6 Este 9 Sudeste 0 -- -- 74
2021-03-04 09:00:00 5.4 4 Sudeste 7 Sudeste 0 -- -- 75
2021-03-04 08:00:00 3.3 4 Sudeste 6 Sudeste 0 -- -- 80
2021-03-04 07:00:00 3.2 6 Sudeste 10 Sudeste 0 -- -- 83
2021-03-04 06:00:00 3.4 3 Sudeste 8 Sudeste 0 -- -- 82
2021-03-04 05:00:00 4.3 4 Sudeste 8 Sur 0 -- -- 80
2021-03-04 04:00:00 4.9 4 Sudeste 12 Sudeste 0 -- -- 79
2021-03-04 03:00:00 4.7 10 Sudeste 12 Sudeste 0 -- -- 80
2021-03-04 02:00:00 6 3 Sudeste 14 Sudoeste 0 -- -- 76
2021-03-04 01:00:00 6.8 9 Sur 13 Sur 0 -- -- 76
2021-03-04 00:00:00 6.9 9 Sudoeste 15 Sudoeste 0 -- -- 74
2021-03-03 23:00:00 7.7 9 Sur 15 Sur 0 -- -- 73
2021-03-03 22:00:00 7.7 9 Sur 12 Sur 0 -- -- 78
2021-03-03 21:00:00 7.4 10 Sur 12 Sur 0 -- -- 83
2021-03-03 20:00:00 8.5 3 Sudeste 7 Nordeste 0 -- -- 80
2021-03-03 19:00:00 9.8 4 Nordeste 9 Nordeste 0 -- -- 76
2021-03-03 18:00:00 11.2 6 Nordeste 15 Nordeste 0 -- -- 72
2021-03-03 17:00:00 11.5 10 Norte 17 Norte 0 -- -- 72
2021-03-03 16:00:00 11.7 9 Norte 14 Norte 0 -- -- 71
2021-03-03 15:00:00 11.8 9 Nordeste 20 Norte 0 -- -- 70
2021-03-03 14:00:00 12.2 7 Norte 17 Sudeste 0 -- -- 68
2021-03-03 13:00:00 11.7 10 Sudeste 20 Sudeste 0 -- -- 62
2021-03-03 12:00:00 11.4 7 Sur 15 Sudeste 0 -- -- 62
2021-03-03 11:00:00 10.1 5 Este 9 Este 0 -- -- 65
2021-03-03 10:00:00 6.5 4 Sudeste 8 Sudeste 0 -- -- 85
2021-03-03 09:00:00 3.4 6 Sudeste 9 Sudeste 0 -- -- 89
2021-03-03 08:00:00 2.3 4 Sudeste 7 Sur 0 -- -- 90
2021-03-03 07:00:00 2.4 2 Sudeste 5 Sudeste 0 -- -- 88
2021-03-03 06:00:00 2.6 0 Calma 8 Sudeste 0 -- -- 86
2021-03-03 05:00:00 3.1 6 Sudeste 8 Sudeste 0 -- -- 85
2021-03-03 04:00:00 3.6 5 Sudeste 9 Sudeste 0 -- -- 82
2021-03-03 03:00:00 5 8 Sur 16 Sur 0 -- -- 77
2021-03-03 02:00:00 6 11 Sudoeste 18 Sudoeste 0 -- -- 73
2021-03-03 01:00:00 6.3 8 Sudoeste 26 Sur 0 -- -- 72
2021-03-03 00:00:00 6.5 10 Sur 26 Sur 0 -- -- 73
2021-03-02 23:00:00 6.7 14 Sur 27 Sur 0 -- -- 72
2021-03-02 22:00:00 7 14 Sur 30 Sur 0 -- -- 72
2021-03-02 21:00:00 7 13 Sur 26 Sur 0 -- -- 73
2021-03-02 20:00:00 7.3 16 Sudeste 30 Sudeste 0 -- -- 74
2021-03-02 19:00:00 8.1 17 Sudeste 31 Sur 0 -- -- 72
2021-03-02 18:00:00 10.6 18 Sur 28 Sur 0 -- -- 64
2021-03-02 17:00:00 11.9 6 Sur 14 Este 0 -- -- 57
2021-03-02 16:00:00 12.6 6 Este 16 Sur 0 -- -- 55
2021-03-02 15:00:00 12.2 7 Sur 19 Sur 0 -- -- 56
2021-03-02 14:00:00 11.6 13 Sudoeste 29 Sur 0 -- -- 58
2021-03-02 13:00:00 11.4 14 Sur 26 Sudeste 0 -- -- 62
2021-03-02 12:00:00 11.7 10 Sudoeste 24 Sur 0 -- -- 58
2021-03-02 11:00:00 9.5 15 Sur 34 Sur 0 -- -- 68
2021-03-02 10:00:00 8.5 15 Sur 26 Sur 0 -- -- 70
2021-03-02 09:00:00 6.7 15 Sur 23 Sur 0 -- -- 77
2021-03-02 08:00:00 5 16 Sur 26 Sur 0 -- -- 82
2021-03-02 07:00:00 5.4 15 Sur 29 Sur 0 -- -- 81
2021-03-02 06:00:00 5.2 11 Sur 18 Sudeste 0 -- -- 83
2021-03-02 05:00:00 5.2 11 Sur 29 Sur 0 -- -- 84
2021-03-02 04:00:00 5.3 13 Sur 33 Sudeste 0 -- -- 83
2021-03-02 03:00:00 5.1 15 Sudeste 31 Sudeste 0 -- -- 85
2021-03-02 02:00:00 5.3 17 Sur 44 Sudeste 0 -- -- 83
2021-03-02 01:00:00 5.8 26 Sur 40 Sur 0 -- -- 82
2021-03-02 00:00:00 6.3 16 Sur 30 Sur 0 -- -- 82
2021-03-01 23:00:00 6.3 13 Sur 23 Sur 0 -- -- 82
2021-03-01 22:00:00 6 12 Sudeste 22 Sur 0 -- -- 87
2021-03-01 21:00:00 6 13 Sudeste 19 Sudeste 0 -- -- 86
2021-03-01 20:00:00 5.7 10 Sudeste 19 Sudeste 0 -- -- 88
2021-03-01 19:00:00 5.8 12 Sudeste 24 Sudeste 0 -- -- 87
2021-03-01 18:00:00 6 14 Sudeste 24 Sudeste 0 -- -- 85
2021-03-01 17:00:00 6.8 19 Sudeste 25 Sudeste 0 -- -- 80
2021-03-01 16:00:00 6 15 Sudeste 24 Sudeste 0 -- -- 81
2021-03-01 15:00:00 6.3 18 Sudeste 28 Sur 0 -- -- 79
2021-03-01 14:00:00 6.9 14 Sudeste 31 Sudeste 0 -- -- 75
2021-03-01 13:00:00 5.2 20 Sudeste 28 Sudeste 0 -- -- 78
2021-03-01 12:00:00 5.7 13 Sudeste 33 Sudeste 0 -- -- 75
2021-03-01 11:00:00 5.3 28 Sudeste 39 Sudeste 0 -- -- 75
2021-03-01 10:00:00 5.1 23 Sudeste 32 Sudeste 0 -- -- 79
2021-03-01 09:00:00 4.7 17 Sudeste 51 Sur 0 -- -- 80
2021-03-01 08:00:00 4.4 14 Sudeste 37 Sudeste 0 -- -- 81
2021-03-01 07:00:00 4.4 18 Sur 49 Sur 0 -- -- 78
2021-03-01 06:00:00 4.5 32 Sur 52 Sur 0 -- -- 79
2021-03-01 05:00:00 4.2 19 Sur 45 Sur 0 -- -- 80
2021-03-01 04:00:00 4.4 19 Sur 45 Sur 0 -- -- 78
2021-03-01 03:00:00 4.4 22 Sur 50 Sur 0 -- -- 79
2021-03-01 02:00:00 5 19 Sur 43 Sur 0 -- -- 77
2021-03-01 01:00:00 4.9 30 Sudeste 53 Sur 0 -- -- 80
2021-03-01 00:00:00 5.2 28 Sudeste 48 Sur 0 -- -- 80
2021-02-28 23:00:00 5.5 31 Sudeste 52 Sudeste 0 -- -- 78
2021-02-28 22:00:00 6.2 34 Sur 50 Sur 0 -- -- 75
2021-02-28 21:00:00 6.7 33 Sur 51 Sur 0 -- -- 74
2021-02-28 20:00:00 7.4 28 Sur 48 Sur 0 -- -- 72
2021-02-28 19:00:00 7.8 17 Sur 46 Sudoeste 0 -- -- 69
2021-02-28 18:00:00 8.9 25 Sur 46 Sur 0 -- -- 63
2021-02-28 17:00:00 9.5 27 Sur 49 Sur 0 -- -- 61
2021-02-28 16:00:00 8.9 28 Sudoeste 52 Sur 0 -- -- 59
2021-02-28 15:00:00 8.5 30 Sur 49 Sur 0 -- -- 60
2021-02-28 14:00:00 8.9 29 Sur 49 Sur 0 -- -- 59
2021-02-28 13:00:00 8.9 27 Sur 46 Sur 0 -- -- 59
2021-02-28 12:00:00 8 28 Sudoeste 54 Sur 0 -- -- 60
2021-02-28 11:00:00 7 26 Sur 49 Sur 0 -- -- 63
2021-02-28 10:00:00 5.8 26 Sur 38 Sur 0 -- -- 68
2021-02-28 09:00:00 6.2 7 Sur 23 Sur 0 -- -- 62
2021-02-28 08:00:00 1.3 9 Sudeste 16 Sudeste 0 -- -- 81
2021-02-28 07:00:00 0.9 17 Sudeste 36 Sudeste 0 -- -- 87
2021-02-28 06:00:00 1.1 28 Sudeste 38 Sudeste 0 -- -- 88
2021-02-28 05:00:00 1.4 25 Sudeste 32 Sudeste 0 -- -- 83
2021-02-28 04:00:00 0.6 14 Sudeste 18 Sudeste 0 -- -- 79
2021-02-28 03:00:00 0.8 14 Sudeste 22 Sudeste 0 -- -- 75
2021-02-28 02:00:00 4.2 22 Sudeste 28 Sudeste 0 -- -- 55
2021-02-28 01:00:00 4.9 22 Sur 28 Sudeste 0 -- -- 53
2021-02-28 00:00:00 3.2 13 Sudeste 24 Sudeste 0 -- -- 73
2021-02-27 23:00:00 3.8 9 Sudeste 18 Sur 0 -- -- 80
2021-02-27 22:00:00 4.9 8 Sudeste 17 Sudeste 0 -- -- 83
2021-02-27 21:00:00 6.2 4 Este 16 Sudoeste 0 -- -- 76
2021-02-27 20:00:00 7.8 9 Sudoeste 12 Noroeste 0 -- -- 73
2021-02-27 19:00:00 9.7 12 Noroeste 15 Noroeste 0 -- -- 64
2021-02-27 18:00:00 14.8 8 Noroeste 16 Norte 0 -- -- 39
2021-02-27 17:00:00 14.8 9 Nordeste 15 Norte 0 -- -- 35
2021-02-27 16:00:00 15.2 4 Nordeste 18 Nordeste 0 -- -- 33
2021-02-27 15:00:00 14.7 12 Nordeste 18 Este 0 -- -- 37
2021-02-27 14:00:00 14.7 9 Este 19 Sudeste 0 -- -- 42
2021-02-27 13:00:00 15 9 Este 20 Sudeste 0 -- -- 40
2021-02-27 12:00:00 14 9 Este 18 Este 0 -- -- 35
2021-02-27 11:00:00 12.7 12 Sudeste 17 Sudeste 0 -- -- 44
2021-02-27 10:00:00 9.8 7 Sudeste 20 Este 0 -- -- 62
2021-02-27 09:00:00 4.3 10 Sudeste 21 Sudeste 0 -- -- 83
2021-02-27 08:00:00 1.2 11 Sudeste 17 Sudeste 0 -- -- 79
2021-02-27 07:00:00 2.6 9 Sudeste 13 Sudeste 0 -- -- 66
2021-02-27 06:00:00 3.7 12 Sudeste 14 Sudeste 0 -- -- 66
2021-02-27 05:00:00 3.6 7 Sudeste 15 Sudeste 0 -- -- 77
2021-02-27 04:00:00 3.7 12 Sudeste 18 Sudeste 0 -- -- 80
2021-02-27 03:00:00 3.9 12 Sudeste 15 Sudeste 0 -- -- 81
2021-02-27 02:00:00 3.7 9 Sudeste 11 Sudeste 0 -- -- 85
2021-02-27 01:00:00 4 6 Sudeste 10 Sudeste 0 -- -- 87
2021-02-27 00:00:00 3.9 3 Este 16 Sudeste 0 -- -- 87
2021-02-26 23:00:00 4.3 9 Sudeste 14 Sudeste 0 -- -- 85
2021-02-26 22:00:00 5 9 Sudeste 14 Sudeste 0 -- -- 81
2021-02-26 21:00:00 7.1 14 Sudeste 19 Sudeste 0 -- -- 75
2021-02-26 20:00:00 8 13 Sudeste 18 Sudeste 0 -- -- 68
2021-02-26 19:00:00 11.1 7 Sur 17 Sur 0 -- -- 57
2021-02-26 18:00:00 13.7 9 Sur 17 Sur 0 -- -- 48
2021-02-26 17:00:00 14.6 12 Sur 24 Sur 0 -- -- 46
2021-02-26 16:00:00 14.9 12 Sur 30 Sur 0 -- -- 44
2021-02-26 15:00:00 14.4 22 Sudeste 33 Sudeste 0 -- -- 48
2021-02-26 14:00:00 13.9 15 Sudeste 26 Sur 0 -- -- 45
2021-02-26 13:00:00 13 19 Sur 28 Sur 0 -- -- 45
2021-02-26 12:00:00 11.9 19 Sudeste 37 Sudeste 0 -- -- 52
2021-02-26 11:00:00 9.1 18 Sudeste 25 Sudeste 0 -- -- 72
2021-02-26 10:00:00 7.3 22 Sudeste 32 Sudeste 0 -- -- 75
2021-02-26 09:00:00 4.2 23 Sur 30 Sudeste 0 -- -- 89
2021-02-26 08:00:00 3 19 Sudeste 30 Sudeste 0 -- -- 92
2021-02-26 07:00:00 3.6 17 Sudeste 20 Sudeste 0 -- -- 91
2021-02-26 06:00:00 3.3 9 Sudeste 16 Sudeste 0 -- -- 88
2021-02-26 05:00:00 3.3 4 Este 14 Sudeste 0 -- -- 87
2021-02-26 04:00:00 3.6 3 Nordeste 9 Este 0 -- -- 84
2021-02-26 03:00:00 4.6 2 Este 9 Sudeste 0 -- -- 78
2021-02-26 02:00:00 5.1 8 Sudeste 12 Sur 0 -- -- 79
2021-02-26 01:00:00 4.7 10 Sudeste 17 Sudeste 0 -- -- 82
2021-02-26 00:00:00 6 14 Sudeste 23 Sudeste 0 -- -- 77
2021-02-25 23:00:00 6.1 11 Sudeste 22 Sudeste 0 -- -- 75
2021-02-25 22:00:00 8.2 21 Sudeste 26 Sudeste 0 -- -- 66
2021-02-25 21:00:00 6.5 12 Sudeste 23 Sur 0 -- -- 74
2021-02-25 20:00:00 8.2 15 Sudeste 34 Sur 0 -- -- 68
2021-02-25 19:00:00 9.8 15 Sur 21 Sur 0 -- -- 66
2021-02-25 18:00:00 10.9 13 Sur 24 Sur 0 -- -- 60
2021-02-25 17:00:00 11.9 17 Sur 25 Sur 0 -- -- 56
2021-02-25 16:00:00 12.7 15 Sur 28 Sur 0 -- -- 54
2021-02-25 15:00:00 12.5 17 Sudeste 24 Sudeste 0 -- -- 52
2021-02-25 14:00:00 11.4 13 Sur 26 Sudeste 0 -- -- 56
2021-02-25 13:00:00 9.8 20 Sudeste 30 Sudeste 0 -- -- 65
2021-02-25 12:00:00 8.9 19 Sudeste 28 Sur 0 -- -- 64
2021-02-25 11:00:00 7.7 14 Sur 31 Sudeste 0 -- -- 71
2021-02-25 10:00:00 6.3 25 Sudeste 32 Sudeste 0 -- -- 77
2021-02-25 09:00:00 5.1 14 Sudeste 35 Sur 0 -- -- 80
2021-02-25 08:00:00 5 19 Sur 28 Sur 0 -- -- 79
2021-02-25 07:00:00 5.7 18 Sur 36 Sudoeste 0 -- -- 73
2021-02-25 06:00:00 6.6 9 Sudeste 31 Sur 0 -- -- 69
2021-02-25 05:00:00 6.6 22 Sur 34 Sudeste 0 -- -- 71
2021-02-25 04:00:00 6.8 13 Sur 25 Sur 0 -- -- 70
2021-02-25 03:00:00 6.9 17 Sur 28 Sur 0 -- -- 70
2021-02-25 02:00:00 6.7 14 Sudeste 35 Sudoeste 0 -- -- 73
2021-02-25 01:00:00 7.2 16 Sur 34 Sudoeste 0 -- -- 73
2021-02-25 00:00:00 6.4 5 Sudoeste 26 Sudeste 0 -- -- 79
2021-02-24 23:00:00 6.9 22 Sur 35 Sur 0 -- -- 80
2021-02-24 22:00:00 7.2 8 Sur 33 Sudeste 0 -- -- 80
2021-02-24 21:00:00 8.1 28 Sur 42 Sur 0 -- -- 79
2021-02-24 20:00:00 7.6 8 Sur 11 Sudoeste 0 -- -- 78
2021-02-24 19:00:00 9 8 Sur 19 Sudoeste 0 -- -- 72
2021-02-24 18:00:00 11.3 8 Sur 24 Sur 0 -- -- 63
2021-02-24 17:00:00 11.3 20 Sur 33 Sudoeste 0 -- -- 62
2021-02-24 16:00:00 12.1 18 Sudoeste 61 Sur 0 -- -- 57
2021-02-24 15:00:00 11.2 42 Sur 65 Sur 0 -- -- 58
2021-02-24 14:00:00 11.8 26 Sur 56 Sur 0 -- -- 55
2021-02-24 13:00:00 11.9 24 Sur 48 Sur 0 -- -- 54
2021-02-24 12:00:00 11.6 22 Sur 40 Sur 0 -- -- 54
2021-02-24 11:00:00 9.9 28 Sur 40 Sudeste 0 -- -- 66
2021-02-24 10:00:00 8.6 19 Sur 41 Sur 0 -- -- 69
2021-02-24 09:00:00 6.5 24 Sur 36 Sur 0 -- -- 76
2021-02-24 08:00:00 4.8 12 Sur 33 Sur 0 -- -- 81
2021-02-24 07:00:00 5 24 Sur 36 Sur 0 -- -- 80
2021-02-24 06:00:00 5.2 8 Sudoeste 21 Sudoeste 0 -- -- 77
2021-02-24 05:00:00 5.3 9 Sur 31 Sur 0 -- -- 74
2021-02-24 04:00:00 5.6 17 Sur 36 Sur 0 -- -- 75
2021-02-24 03:00:00 5.7 19 Sur 48 Sudeste 0 -- -- 76
2021-02-24 02:00:00 6.1 22 Sur 42 Sudeste 0 -- -- 75
2021-02-24 01:00:00 6 15 Sur 44 Sur 0 -- -- 76
2021-02-24 00:00:00 5.7 25 Sur 32 Sur 0 -- -- 78
2021-02-23 23:00:00 5 16 Sur 23 Sur 0 -- -- 80
2021-02-23 22:00:00 5.5 17 Sur 27 Sur 0 -- -- 77
2021-02-23 21:00:00 5.7 15 Sudoeste 22 Sudoeste 0 -- -- 76
2021-02-23 20:00:00 6.1 12 Sudoeste 18 Sudoeste 0 -- -- 74
2021-02-23 19:00:00 7.2 14 Sudoeste 30 Sudoeste 0 -- -- 69
2021-02-23 18:00:00 9.3 19 Sudoeste 28 Sur 0 -- -- 61
2021-02-23 17:00:00 10.2 12 Sudoeste 28 Sur 0 -- -- 58
2021-02-23 16:00:00 10.8 17 Sudoeste 35 Sur 0 -- -- 51
2021-02-23 15:00:00 10.9 16 Sur 30 Sudoeste 0 -- -- 50
2021-02-23 14:00:00 10.1 18 Sur 38 Sudoeste 0 -- -- 57
2021-02-23 13:00:00 10.3 20 Sudoeste 31 Sudoeste 0.2 -- -- 54
2021-02-23 12:00:00 9.2 13 Sudeste 27 Sur 0 -- -- 64
2021-02-23 11:00:00 6.7 13 Sudeste 22 Sudeste 0 -- -- 75
2021-02-23 10:00:00 5.3 15 Sudeste 24 Sur 0 -- -- 77
2021-02-23 09:00:00 2.3 15 Sudeste 22 Sudeste 0 -- -- 88
2021-02-23 08:00:00 -1.3 8 Sudeste 21 Sudeste 0 -- -- 97
2021-02-23 07:00:00 -1 6 Sudeste 15 Sudeste 0 -- -- 97
2021-02-23 06:00:00 -0.2 8 Sudeste 12 Sudeste 0 -- -- 95
2021-02-23 05:00:00 0.3 3 Sur 8 Sudeste 0 -- -- 94
2021-02-23 04:00:00 0 4 Sudeste 8 Sur 0 -- -- 93
2021-02-23 03:00:00 0.4 3 Sudeste 5 Sudeste 0 -- -- 93
2021-02-23 02:00:00 0.5 4 Sudeste 8 Sudeste 0 -- -- 93
2021-02-23 01:00:00 0.8 6 Sudeste 9 Sudeste 0 -- -- 94
2021-02-23 00:00:00 0.8 4 Sudeste 10 Sudoeste 0 -- -- 93
2021-02-22 23:00:00 1.3 0 Calma 8 Sur 0 -- -- 93
2021-02-22 22:00:00 2.4 0 Calma 10 Oeste 0 -- -- 89
2021-02-22 21:00:00 2.4 6 Oeste 9 Oeste 0 -- -- 92
2021-02-22 20:00:00 3 8 Oeste 14 Oeste 0 -- -- 91
2021-02-22 19:00:00 3 10 Oeste 17 Oeste 0 -- -- 94
2021-02-22 18:00:00 3 14 Noroeste 23 Noroeste 0 -- -- 97
2021-02-22 17:00:00 3 15 Oeste 24 Oeste 0 -- -- 98
2021-02-22 16:00:00 2.6 15 Noroeste 22 Noroeste 0 -- -- 98
2021-02-22 15:00:00 2.2 16 Oeste 22 Oeste 0.4 -- -- 97
2021-02-22 14:00:00 1.3 17 Noroeste 26 Oeste 1.8 -- -- 97
2021-02-22 13:00:00 1.1 17 Noroeste 28 Noroeste 2 -- -- 96
2021-02-22 12:00:00 0.5 19 Noroeste 29 Noroeste 0.8 -- -- 96
2021-02-22 11:00:00 0 14 Oeste 28 Oeste 0 -- -- 98
2021-02-22 10:00:00 -0.1 21 Oeste 33 Noroeste 0 -- -- 98
2021-02-22 09:00:00 -0.2 27 Noroeste 36 Noroeste 0 -- -- 98
2021-02-22 08:00:00 -0.4 28 Noroeste 39 Noroeste 0 -- -- 98
2021-02-22 07:00:00 -0.2 24 Noroeste 40 Noroeste 0 -- -- 98
2021-02-22 06:00:00 -0.1 28 Noroeste 44 Oeste 0 -- -- 98
2021-02-22 05:00:00 -0.1 31 Oeste 43 Noroeste 0.2 -- -- 97
2021-02-22 04:00:00 -0.1 31 Oeste 46 Oeste 0 -- -- 96
2021-02-22 03:00:00 0.2 29 Oeste 46 Oeste 0.2 -- -- 95
2021-02-22 02:00:00 0.9 25 Noroeste 37 Oeste 0 -- -- 94
2021-02-22 01:00:00 0.9 27 Oeste 41 Oeste 0 -- -- 95
2021-02-22 00:00:00 0.9 26 Noroeste 40 Noroeste 0.4 -- -- 95
2021-02-21 23:00:00 1.2 24 Oeste 42 Oeste 1.4 -- -- 94
2021-02-21 22:00:00 2.3 30 Oeste 46 Oeste 1.4 -- -- 93
2021-02-21 21:00:00 6 0 Calma 6 Sudeste 0.2 -- -- 91
2021-02-21 20:00:00 6.2 5 Sudeste 18 Sudeste 0 -- -- 89
2021-02-21 19:00:00 6.8 8 Sudeste 14 Sudeste 0 -- -- 80
2021-02-21 18:00:00 7.8 6 Sur 15 Sur 0 -- -- 75
2021-02-21 17:00:00 8.2 9 Sur 23 Sur 0 -- -- 71
2021-02-21 16:00:00 8.5 17 Sur 28 Sudeste 0 -- -- 68
2021-02-21 15:00:00 8.6 18 Sur 28 Sur 0 -- -- 68
2021-02-21 14:00:00 8.9 20 Sudeste 30 Sudeste 0 -- -- 66
2021-02-21 13:00:00 10.3 22 Sur 34 Sur 0 -- -- 60
2021-02-21 12:00:00 10.7 9 Nordeste 22 Este 0 -- -- 58
2021-02-21 11:00:00 7.8 14 Este 22 Sudeste 0 -- -- 63
2021-02-21 10:00:00 6.9 5 Este 10 Este 0 -- -- 68
2021-02-21 09:00:00 5 4 Este 10 Este 0 -- -- 71
2021-02-21 08:00:00 4.5 5 Sudeste 14 Sudeste 0 -- -- 72
2021-02-21 07:00:00 4.2 6 Sudeste 16 Este 0 -- -- 75
2021-02-21 06:00:00 5 12 Sudeste 31 Sudeste 0 -- -- 74
2021-02-21 05:00:00 5.2 26 Sudeste 35 Sudeste 0 -- -- 74
2021-02-21 04:00:00 4.8 22 Sudeste 33 Sudeste 0 -- -- 78
2021-02-21 03:00:00 4.3 10 Sudeste 13 Sudeste 0 -- -- 81
2021-02-21 02:00:00 5.3 4 Norte 30 Sudeste 0 -- -- 77
2021-02-21 01:00:00 5.7 16 Sudeste 24 Sudeste 0 -- -- 71
2021-02-21 00:00:00 5.2 8 Sudeste 22 Sudeste 0 -- -- 65
2021-02-20 23:00:00 7.2 18 Sudeste 25 Sudeste 0 -- -- 54
2021-02-20 22:00:00 8.2 19 Sudeste 34 Sur 0 -- -- 48
2021-02-20 21:00:00 10.9 11 Sudeste 32 Sudeste 0 -- -- 38
2021-02-20 20:00:00 10.6 5 Noroeste 37 Sudoeste 0 -- -- 43
2021-02-20 19:00:00 11.5 19 Sudoeste 34 Oeste 0 -- -- 41
2021-02-20 18:00:00 11.7 23 Sudoeste 43 Sur 0 -- -- 41
2021-02-20 17:00:00 11.5 22 Sudoeste 45 Sudoeste 0 -- -- 42
2021-02-20 16:00:00 11.4 24 Sur 46 Oeste 0 -- -- 44
2021-02-20 15:00:00 11.8 28 Oeste 72 Sudoeste 0 -- -- 44
2021-02-20 14:00:00 10.4 46 Sur 81 Sur 0 -- -- 49
2021-02-20 13:00:00 10.1 37 Sudoeste 77 Sur 0 -- -- 49
2021-02-20 12:00:00 10.6 41 Sur 91 Sur 0 -- -- 49
2021-02-20 11:00:00 9.9 44 Sudoeste 85 Sudoeste 0 -- -- 51
2021-02-20 10:00:00 9.2 41 Sur 83 Sudoeste 0 -- -- 57
2021-02-20 09:00:00 9.2 15 Oeste 45 Sudoeste 0 -- -- 50
2021-02-20 08:00:00 8.4 20 Oeste 41 Sudoeste 0 -- -- 52
2021-02-20 07:00:00 8.1 6 Norte 43 Oeste 0 -- -- 54
2021-02-20 06:00:00 8.5 8 Oeste 37 Sudoeste 0 -- -- 50
2021-02-20 05:00:00 8.7 21 Sudoeste 66 Sudoeste 0 -- -- 49
2021-02-20 04:00:00 8.9 31 Sudoeste 51 Sudoeste 0 -- -- 49
2021-02-20 03:00:00 8.9 20 Sudoeste 43 Sudoeste 0 -- -- 48
2021-02-20 02:00:00 10.1 26 Sudoeste 49 Sudoeste 0 -- -- 40
2021-02-20 01:00:00 9.5 25 Sur 45 Sur 0 -- -- 47
2021-02-20 00:00:00 9.8 26 Sur 42 Sur 0 -- -- 48
2021-02-19 23:00:00 9.6 22 Sur 39 Sur 0 -- -- 50
2021-02-19 22:00:00 9.5 16 Sur 36 Sur 0 -- -- 49
2021-02-19 21:00:00 10.2 26 Sur 40 Sur 0 -- -- 46
2021-02-19 20:00:00 10.3 27 Sudoeste 52 Sur 0 -- -- 44
2021-02-19 19:00:00 10.4 26 Sudoeste 45 Sudoeste 0 -- -- 44
2021-02-19 18:00:00 11.1 24 Sudoeste 44 Sudoeste 0 -- -- 45
2021-02-19 17:00:00 12.6 24 Sudoeste 42 Sudoeste 0 -- -- 44
2021-02-19 16:00:00 13.4 23 Sudoeste 42 Sudoeste 0 -- -- 39
2021-02-19 15:00:00 13.3 27 Sudoeste 46 Sudoeste 0 -- -- 41
2021-02-19 14:00:00 13 25 Sur 45 Sudoeste 0 -- -- 42
2021-02-19 13:00:00 12.8 23 Sur 41 Sur 0 -- -- 43
2021-02-19 12:00:00 12.8 22 Sudoeste 38 Sudoeste 0 -- -- 43
2021-02-19 11:00:00 11.3 23 Sudoeste 36 Sur 0 -- -- 46
2021-02-19 10:00:00 10.3 17 Sudoeste 29 Sudoeste 0 -- -- 51
2021-02-19 09:00:00 7.9 10 Sur 19 Sudoeste 0 -- -- 59
2021-02-19 08:00:00 6 9 Sur 18 Sur 0 -- -- 61
2021-02-19 07:00:00 5.4 11 Sur 17 Sur 0 -- -- 56
2021-02-19 06:00:00 5.5 7 Sur 14 Sur 0 -- -- 53
2021-02-19 05:00:00 5.5 6 Sudoeste 15 Sur 0 -- -- 55
2021-02-19 04:00:00 5.7 8 Sur 15 Sur 0 -- -- 61
2021-02-19 03:00:00 6.4 9 Sur 16 Sur 0 -- -- 60
2021-02-19 02:00:00 6.9 6 Sur 17 Sur 0 -- -- 57
2021-02-19 01:00:00 6.3 8 Sur 16 Sudoeste 0 -- -- 59
2021-02-19 00:00:00 5.1 5 Sudeste 10 Sudeste 0 -- -- 68
2021-02-18 23:00:00 4.9 10 Sur 12 Sur 0 -- -- 72
2021-02-18 22:00:00 5.6 7 Sur 12 Sur 0 -- -- 70
2021-02-18 21:00:00 6.9 5 Sur 16 Oeste 0 -- -- 67
2021-02-18 20:00:00 8.4 13 Oeste 20 Oeste 0 -- -- 55
2021-02-18 19:00:00 9.6 15 Oeste 27 Oeste 0 -- -- 54
2021-02-18 18:00:00 11 19 Oeste 34 Oeste 0 -- -- 51
2021-02-18 17:00:00 11.9 24 Oeste 41 Oeste 0 -- -- 46
2021-02-18 16:00:00 12.7 27 Oeste 52 Oeste 0 -- -- 45
2021-02-18 15:00:00 12.7 38 Oeste 67 Oeste 0 -- -- 43
2021-02-18 14:00:00 12.7 41 Oeste 57 Oeste 0 -- -- 36
2021-02-18 13:00:00 13.7 28 Oeste 44 Oeste 0 -- -- 39
2021-02-18 12:00:00 12.7 21 Noroeste 37 Oeste 0 -- -- 41
2021-02-18 11:00:00 12.3 22 Oeste 35 Oeste 0 -- -- 35
2021-02-18 10:00:00 8.9 15 Sur 24 Sur 0 -- -- 53
2021-02-18 09:00:00 7.2 10 Sudoeste 20 Sudoeste 0 -- -- 59
2021-02-18 08:00:00 6.4 12 Sur 23 Sudoeste 0 -- -- 60
2021-02-18 07:00:00 7.5 15 Sudoeste 25 Sudoeste 0 -- -- 53
2021-02-18 06:00:00 7.4 14 Sudoeste 30 Sur 0 -- -- 57
2021-02-18 05:00:00 7.3 14 Sur 32 Sur 0 -- -- 65
2021-02-18 04:00:00 7.4 16 Sur 30 Sur 0 -- -- 69
2021-02-18 03:00:00 8.1 17 Sudoeste 33 Sudoeste 0 -- -- 68
2021-02-18 02:00:00 8.2 14 Sudoeste 35 Sudoeste 0 -- -- 68
2021-02-18 01:00:00 8.7 18 Sudoeste 37 Sur 0 -- -- 66
2021-02-18 00:00:00 8.7 19 Sur 40 Sudoeste 0 -- -- 65
2021-02-17 23:00:00 8.3 22 Sudoeste 38 Sudoeste 0 -- -- 71
2021-02-17 22:00:00 8.6 19 Sudoeste 37 Sudoeste 0 -- -- 74
2021-02-17 21:00:00 8.5 17 Sudoeste 33 Sudoeste 0 -- -- 77
2021-02-17 20:00:00 9.2 20 Sudoeste 32 Sur 0 -- -- 77
2021-02-17 19:00:00 9.9 11 Sudoeste 24 Sur 0 -- -- 75
2021-02-17 18:00:00 11.8 16 Sudoeste 24 Sudoeste 0 -- -- 66
2021-02-17 17:00:00 12.9 10 Sudoeste 25 Sudoeste 0 -- -- 62
2021-02-17 16:00:00 13.8 10 Oeste 25 Oeste 0 -- -- 59
2021-02-17 15:00:00 13.2 16 Noroeste 26 Noroeste 0 -- -- 60
2021-02-17 14:00:00 13 8 Noroeste 13 Norte 0 -- -- 66
2021-02-17 13:00:00 11.8 4 Norte 7 Norte 0 -- -- 68
2021-02-17 12:00:00 10.8 4 Este 8 Este 0 -- -- 71
2021-02-17 11:00:00 9.9 2 Sur 10 Noroeste 0 -- -- 76
2021-02-17 10:00:00 12 0 Calma 7 Oeste 0 -- -- 70
2021-02-17 09:00:00 6.5 2 Oeste 8 Norte 0 -- -- 91
2021-02-17 08:00:00 5.2 4 Noroeste 9 Oeste 0 -- -- 91
2021-02-17 07:00:00 6.5 4 Sudoeste 10 Oeste 0 -- -- 89
2021-02-17 06:00:00 6.1 9 Noroeste 15 Oeste 0 -- -- 90
2021-02-17 05:00:00 7.3 8 Noroeste 13 Oeste 0 -- -- 84
2021-02-17 04:00:00 7.6 10 Oeste 16 Oeste 0 -- -- 84
2021-02-17 03:00:00 7.2 11 Oeste 17 Oeste 0 -- -- 84
2021-02-17 02:00:00 7.4 12 Oeste 21 Oeste 0 -- -- 85
2021-02-17 01:00:00 7.8 14 Oeste 24 Oeste 0 -- -- 82
2021-02-17 00:00:00 8.1 15 Oeste 23 Oeste 0 -- -- 80
2021-02-16 23:00:00 8.4 13 Oeste 22 Oeste 0 -- -- 77
2021-02-16 22:00:00 8.7 10 Oeste 21 Oeste 0 -- -- 74
2021-02-16 21:00:00 8.7 11 Oeste 20 Oeste 0 -- -- 71
2021-02-16 20:00:00 9.2 15 Oeste 27 Oeste 0 -- -- 65
2021-02-16 19:00:00 10 15 Oeste 30 Oeste 0 -- -- 57
2021-02-16 18:00:00 11.4 20 Oeste 33 Oeste 0 -- -- 60
2021-02-16 17:00:00 12.6 19 Oeste 28 Oeste 0 -- -- 62
2021-02-16 16:00:00 12.8 18 Noroeste 27 Noroeste 0 -- -- 61
2021-02-16 15:00:00 14.2 19 Oeste 29 Noroeste 0 -- -- 59
2021-02-16 14:00:00 13.7 7 Noroeste 13 Oeste 0 -- -- 55
2021-02-16 13:00:00 12.3 3 Norte 21 Norte 0 -- -- 55
2021-02-16 12:00:00 11.9 5 Norte 30 Sur 0 -- -- 54
2021-02-16 11:00:00 12 14 Sur 30 Sur 0 -- -- 53
2021-02-16 10:00:00 12.2 13 Sudoeste 32 Sur 0 -- -- 51
2021-02-16 09:00:00 8.8 17 Sudoeste 29 Sur 0 -- -- 60
2021-02-16 08:00:00 7.5 14 Sur 31 Sudoeste 0 -- -- 64
2021-02-16 07:00:00 7.6 18 Sur 36 Sudoeste 0 -- -- 65
2021-02-16 06:00:00 7 21 Sur 35 Sur 0 -- -- 69
2021-02-16 05:00:00 7.5 14 Sur 25 Sudoeste 0 -- -- 65
2021-02-16 04:00:00 6.7 6 Sur 22 Sur 0 -- -- 68
2021-02-16 03:00:00 7 15 Sur 30 Sur 0 -- -- 69
2021-02-16 02:00:00 6.9 22 Sur 37 Sur 0 -- -- 74
2021-02-16 01:00:00 7.3 18 Sur 28 Sur 0 -- -- 72
2021-02-16 00:00:00 7.6 18 Sur 35 Sur 0 -- -- 70
2021-02-15 23:00:00 7.6 17 Sur 28 Sur 0 -- -- 70
2021-02-15 22:00:00 7.7 17 Sur 32 Sur 0 -- -- 70
2021-02-15 21:00:00 7.8 14 Sur 30 Sur 0 -- -- 65
2021-02-15 20:00:00 7.8 24 Sur 35 Sur 0 -- -- 69
2021-02-15 19:00:00 8.4 19 Sur 41 Sur 0 -- -- 67
2021-02-15 18:00:00 10 26 Sur 44 Sur 0 -- -- 66
2021-02-15 17:00:00 11.8 23 Sur 44 Sudoeste 0 -- -- 56
2021-02-15 16:00:00 12.5 22 Sur 44 Sur 0 -- -- 55
2021-02-15 15:00:00 13 14 Sur 27 Sur 0 -- -- 59
2021-02-15 14:00:00 13.6 14 Sur 27 Sur 0 -- -- 55
2021-02-15 13:00:00 13.1 15 Sur 25 Sur 0 -- -- 50
2021-02-15 12:00:00 14.7 4 Sudoeste 16 Sur 0 -- -- 45
2021-02-15 11:00:00 10.6 10 Sur 22 Sur 0 -- -- 57
2021-02-15 10:00:00 8 17 Sur 23 Sudeste 0 -- -- 71
2021-02-15 09:00:00 4.4 12 Sudeste 15 Sudeste 0 -- -- 84
2021-02-15 08:00:00 3.2 8 Sudeste 13 Sudeste 0 -- -- 87
2021-02-15 07:00:00 3.7 8 Sudeste 13 Sudeste 0 -- -- 85
2021-02-15 06:00:00 3.4 8 Sudeste 11 Este 0 -- -- 86
2021-02-15 05:00:00 4.9 11 Sur 19 Sudeste 0 -- -- 80
2021-02-15 04:00:00 4.9 9 Sur 25 Sur 0 -- -- 80
2021-02-15 03:00:00 6.9 19 Sur 26 Sur 0 -- -- 73
2021-02-15 02:00:00 7.5 15 Sur 24 Sur 0 -- -- 69
2021-02-15 01:00:00 7.7 15 Sur 22 Sur 0 -- -- 68
2021-02-15 00:00:00 8.1 15 Sur 24 Sur 0 -- -- 65
2021-02-14 23:00:00 7.8 14 Sur 24 Sur 0 -- -- 70
2021-02-14 22:00:00 7.8 15 Sur 24 Sur 0 -- -- 73
2021-02-14 21:00:00 7.6 14 Sur 23 Sur 0 -- -- 78
2021-02-14 20:00:00 8.3 17 Sur 26 Sur 0 -- -- 75
2021-02-14 19:00:00 8.9 17 Sur 27 Sur 0 -- -- 72
2021-02-14 18:00:00 10.5 13 Sur 23 Sur 0 -- -- 66
2021-02-14 17:00:00 12.2 15 Sur 26 Sur 0 -- -- 61
2021-02-14 16:00:00 14.2 2 Noroeste 8 Nordeste 0 -- -- 59
2021-02-14 15:00:00 12.8 6 Norte 17 Norte 0 -- -- 64
2021-02-14 14:00:00 12.7 12 Noroeste 19 Noroeste 0 -- -- 69
2021-02-14 13:00:00 14.1 6 Nordeste 18 Este 0 -- -- 52
2021-02-14 12:00:00 11 13 Este 21 Este 0 -- -- 65
2021-02-14 11:00:00 9.1 11 Sudeste 14 Sudeste 0 -- -- 76
2021-02-14 10:00:00 6.6 5 Sudeste 10 Sudeste 0 -- -- 78
2021-02-14 09:00:00 2.4 6 Sudeste 10 Sudeste 0 -- -- 85
2021-02-14 08:00:00 1.6 9 Sur 15 Sur 0 -- -- 86
2021-02-14 07:00:00 1.4 0 Calma 9 Sur 0 -- -- 89
2021-02-14 06:00:00 0.8 4 Sudeste 11 Sur 0 -- -- 95
2021-02-14 05:00:00 2.5 5 Sudeste 17 Sur 0 -- -- 93
2021-02-14 04:00:00 3.1 12 Sudoeste 14 Sudoeste 0 -- -- 92
2021-02-14 03:00:00 3.2 4 Sudeste 9 Sur 0 -- -- 93
2021-02-14 02:00:00 3.1 0 Calma 10 Sur 0 -- -- 93
2021-02-14 01:00:00 2.7 7 Sur 9 Oeste 0 -- -- 92
2021-02-14 00:00:00 4.2 9 Oeste 12 Oeste 0 -- -- 89
2021-02-13 23:00:00 3.4 0 Calma 11 Oeste 0 -- -- 90
2021-02-13 22:00:00 4.3 0 Calma 15 Oeste 0 -- -- 89
2021-02-13 21:00:00 4.8 10 Oeste 14 Oeste 0 -- -- 89
2021-02-13 20:00:00 4.6 4 Noroeste 14 Noroeste 0 -- -- 88
2021-02-13 19:00:00 5.6 7 Norte 22 Norte 0 -- -- 88
2021-02-13 18:00:00 8.1 15 Norte 26 Noroeste 0 -- -- 78
2021-02-13 17:00:00 9.3 18 Noroeste 33 Oeste 0 -- -- 67
2021-02-13 16:00:00 9.1 22 Oeste 32 Oeste 0 -- -- 67
2021-02-13 15:00:00 8.8 23 Oeste 33 Oeste 0 -- -- 61
2021-02-13 14:00:00 7.8 24 Oeste 40 Oeste 0 -- -- 63
2021-02-13 13:00:00 7.2 28 Oeste 42 Oeste 0 -- -- 59
2021-02-13 08:00:00 -- -- -- -- -- -- -- -- --
2021-02-13 07:00:00 3.5 24 Noroeste 34 Oeste 0 -- -- 93
2021-02-13 06:00:00 3.9 23 Oeste 34 Oeste 0 -- -- 93
2021-02-13 05:00:00 4 24 Oeste 32 Oeste 0 -- -- 93
2021-02-13 04:00:00 4 18 Oeste 26 Oeste 0 -- -- 94
2021-02-13 03:00:00 4.3 17 Oeste 23 Oeste 0 -- -- 93
2021-02-13 02:00:00 4.7 12 Oeste 20 Oeste 0 -- -- 91
2021-02-13 01:00:00 4.6 14 Oeste 21 Oeste 0 -- -- 92
2021-02-13 00:00:00 4.6 13 Oeste 21 Oeste 0 -- -- 95
2021-02-12 23:00:00 5.3 14 Oeste 21 Oeste 0 -- -- 94
2021-02-12 22:00:00 5.8 18 Oeste 31 Noroeste 0 -- -- 93
2021-02-12 21:00:00 6.1 21 Noroeste 30 Noroeste 0 -- -- 91
2021-02-12 20:00:00 6.5 24 Noroeste 35 Noroeste 0 -- -- 90
2021-02-12 19:00:00 7.1 23 Noroeste 36 Noroeste 0 -- -- 86
2021-02-12 18:00:00 7.2 27 Oeste 44 Oeste 0 -- -- 87
2021-02-12 17:00:00 8.5 31 Noroeste 44 Noroeste 0 -- -- 80
2021-02-12 16:00:00 8 29 Noroeste 44 Noroeste 0.2 -- -- 86
2021-02-12 15:00:00 7 32 Noroeste 43 Noroeste 0.2 -- -- 89
2021-02-12 14:00:00 5.9 22 Noroeste 40 Oeste 0.6 -- -- 96
2021-02-12 13:00:00 5.8 31 Oeste 44 Oeste 0 -- -- 95
2021-02-12 12:00:00 5.8 32 Oeste 54 Oeste 0 -- -- 93
2021-02-12 11:00:00 5.3 33 Oeste 54 Oeste 0 -- -- 93
2021-02-12 10:00:00 5.7 34 Oeste 51 Oeste 0 -- -- 94
2021-02-12 09:00:00 5.7 32 Oeste 51 Oeste 0.2 -- -- 95
2021-02-12 08:00:00 6.3 31 Oeste 49 Oeste 0.6 -- -- 95
2021-02-12 07:00:00 6.5 28 Oeste 50 Oeste 2.4 -- -- 95
2021-02-12 06:00:00 6.6 14 Oeste 31 Oeste 1.4 -- -- 93
2021-02-12 05:00:00 6.1 21 Oeste 34 Noroeste 0.8 -- -- 95
2021-02-12 04:00:00 8.4 16 Sudoeste 30 Sudoeste 0 -- -- 80
2021-02-12 03:00:00 8.4 18 Sudoeste 33 Sur 0 -- -- 80
2021-02-12 02:00:00 8.7 21 Sudoeste 39 Sur 0 -- -- 80
2021-02-12 01:00:00 8.6 22 Sudoeste 35 Sudoeste 0 -- -- 82
2021-02-12 00:00:00 8.5 11 Sur 27 Sudoeste 0 -- -- 85
2021-02-11 23:00:00 8.2 9 Sur 24 Sur 0 -- -- 87
2021-02-11 22:00:00 8.3 14 Sur 26 Sur 0 -- -- 88
2021-02-11 21:00:00 8.4 14 Sur 25 Sudoeste 0 -- -- 88
2021-02-11 20:00:00 8.4 10 Sur 14 Sur 0 -- -- 88
2021-02-11 19:00:00 8.8 8 Sur 21 Sur 0 -- -- 87
2021-02-11 18:00:00 9.2 12 Sur 20 Sur 0.2 -- -- 87
2021-02-11 17:00:00 10.8 12 Oeste 23 Oeste 0 -- -- 84
2021-02-11 16:00:00 10.5 15 Oeste 28 Oeste 0 -- -- 92
2021-02-11 15:00:00 11.7 23 Oeste 31 Oeste 0 -- -- 78
2021-02-11 14:00:00 10.9 24 Oeste 38 Oeste 0 -- -- 80
2021-02-11 13:00:00 10.3 23 Oeste 40 Oeste 0 -- -- 82
2021-02-11 12:00:00 10.2 22 Oeste 37 Oeste 0 -- -- 85
2021-02-11 11:00:00 9.5 24 Oeste 33 Oeste 0 -- -- 87
2021-02-11 10:00:00 8.1 20 Oeste 31 Oeste 0 -- -- 94
2021-02-11 09:00:00 7.2 21 Oeste 36 Oeste 0 -- -- 97
2021-02-11 08:00:00 7.1 21 Oeste 31 Oeste 0 -- -- 96
2021-02-11 07:00:00 7.1 19 Oeste 35 Oeste 0 -- -- 96
2021-02-11 06:00:00 6.7 21 Oeste 33 Oeste 0 -- -- 94
2021-02-11 05:00:00 6.6 21 Oeste 31 Oeste 0 -- -- 88
2021-02-11 04:00:00 5.5 19 Oeste 33 Oeste 0 -- -- 87
2021-02-11 03:00:00 4.9 18 Oeste 32 Oeste 0 -- -- 86
2021-02-11 02:00:00 4.6 14 Noroeste 32 Oeste 0 -- -- 78
2021-02-11 01:00:00 5.4 18 Oeste 27 Oeste 0 -- -- 66
2021-02-11 00:00:00 4 13 Noroeste 30 Oeste 0 -- -- 69
2021-02-10 23:00:00 4.2 16 Noroeste 35 Oeste 0 -- -- 67
2021-02-10 22:00:00 5.2 26 Oeste 33 Oeste 0 -- -- 68
2021-02-10 21:00:00 4.6 19 Oeste 31 Oeste 0 -- -- 75
2021-02-10 20:00:00 4.6 23 Oeste 39 Oeste 0 -- -- 76
2021-02-10 19:00:00 5 20 Oeste 34 Oeste 0 -- -- 77
2021-02-10 18:00:00 6.6 27 Oeste 43 Oeste 0 -- -- 70
2021-02-10 17:00:00 7.2 33 Oeste 42 Oeste 0 -- -- 68
2021-02-10 16:00:00 7.5 25 Oeste 49 Oeste 0 -- -- 69
2021-02-10 15:00:00 6.6 36 Noroeste 53 Noroeste 0 -- -- 69
2021-02-10 14:00:00 6.1 36 Noroeste 53 Oeste 0 -- -- 72
2021-02-10 13:00:00 5.5 40 Oeste 55 Oeste 0 -- -- 74
2021-02-10 12:00:00 4.1 33 Noroeste 51 Noroeste 0 -- -- 81
2021-02-10 11:00:00 3.2 36 Oeste 49 Oeste 0 -- -- 90
2021-02-10 10:00:00 2.3 31 Oeste 46 Oeste 0 -- -- 94
2021-02-10 09:00:00 1.5 30 Oeste 53 Oeste 0.4 -- -- 97
2021-02-10 08:00:00 1.6 33 Oeste 57 Oeste 1.4 -- -- 96
2021-02-10 07:00:00 1.4 30 Oeste 48 Oeste 2 -- -- 96
2021-02-10 06:00:00 1.1 27 Oeste 41 Oeste 1 -- -- 97
2021-02-10 05:00:00 0.1 15 Oeste 26 Oeste 0.6 -- -- 98
2021-02-10 04:00:00 0.6 7 Oeste 24 Sudoeste 0.4 -- -- 97
2021-02-10 03:00:00 1 19 Oeste 48 Oeste 1.4 -- -- 93
2021-02-10 02:00:00 2.8 28 Oeste 45 Oeste 0.2 -- -- 94
2021-02-10 01:00:00 1.2 28 Oeste 43 Noroeste 2.4 -- -- 96
2021-02-10 00:00:00 2.9 24 Oeste 39 Oeste 0.4 -- -- 94
2021-02-09 23:00:00 2.5 26 Oeste 63 Oeste 1.8 -- -- 93
2021-02-09 22:00:00 2.6 34 Oeste 56 Oeste 0.8 -- -- 94
2021-02-09 21:00:00 0.2 8 Sudoeste 42 Oeste 0.6 -- -- 97
2021-02-09 20:00:00 3.3 16 Oeste 30 Oeste 0.8 -- -- 88
2021-02-09 19:00:00 3.3 18 Oeste 45 Oeste 0 -- -- 84
2021-02-09 18:00:00 3.6 33 Oeste 54 Oeste 0 -- -- 84
2021-02-09 17:00:00 3.6 35 Oeste 70 Oeste 0 -- -- 85
2021-02-09 16:00:00 2 16 Oeste 44 Noroeste 1 -- -- 98
2021-02-09 15:00:00 1.1 29 Noroeste 80 Oeste 1.8 -- -- 94
2021-02-09 14:00:00 5.9 30 Sudoeste 53 Sudoeste 0.4 -- -- 81
2021-02-09 13:00:00 5.7 29 Sudoeste 48 Sudoeste 0 -- -- 82
2021-02-09 12:00:00 5.5 23 Sur 48 Sur 0 -- -- 81
2021-02-09 11:00:00 4.9 23 Sur 43 Sur 0 -- -- 84
2021-02-09 10:00:00 4.4 27 Sur 43 Sur 0 -- -- 84
2021-02-09 09:00:00 3.3 28 Sur 51 Sudoeste 0 -- -- 87
2021-02-09 08:00:00 3.1 22 Sur 44 Sur 0 -- -- 85
2021-02-09 07:00:00 4.4 23 Sudoeste 49 Sudoeste 0 -- -- 81
2021-02-09 06:00:00 4.2 28 Sudoeste 50 Oeste 0.2 -- -- 85
2021-02-09 05:00:00 3.2 14 Oeste 27 Oeste 0.6 -- -- 91
2021-02-09 04:00:00 2.2 20 Oeste 45 Oeste 0.4 -- -- 92
2021-02-09 03:00:00 3.1 22 Oeste 47 Oeste 0.2 -- -- 94
2021-02-09 02:00:00 3.3 26 Oeste 49 Oeste 0.4 -- -- 95
2021-02-09 01:00:00 3.5 28 Oeste 46 Oeste 0 -- -- 96
2021-02-09 00:00:00 3.7 31 Oeste 49 Oeste 0 -- -- 96
2021-02-08 23:00:00 3.7 34 Oeste 49 Oeste 0.2 -- -- 96
2021-02-08 22:00:00 3.8 36 Oeste 52 Oeste 0 -- -- 94
2021-02-08 21:00:00 3.8 30 Oeste 43 Noroeste 0 -- -- 94
2021-02-08 20:00:00 3.7 31 Oeste 56 Oeste 0 -- -- 95
2021-02-08 19:00:00 3.2 28 Oeste 50 Oeste 0.2 -- -- 96
2021-02-08 18:00:00 3 31 Oeste 60 Oeste 0.2 -- -- 95
2021-02-08 17:00:00 3 31 Oeste 54 Oeste 0.8 -- -- 93
2021-02-08 16:00:00 4.2 36 Oeste 63 Oeste 0 -- -- 89
2021-02-08 15:00:00 4.5 35 Oeste 58 Oeste 0 -- -- 89
2021-02-08 14:00:00 4.5 39 Oeste 59 Oeste 0 -- -- 85
2021-02-08 13:00:00 4.2 32 Oeste 58 Oeste 0 -- -- 90
2021-02-08 12:00:00 2.9 35 Oeste 53 Oeste 0.8 -- -- 96
2021-02-08 11:00:00 3.4 35 Oeste 55 Oeste 0 -- -- 91
2021-02-08 10:00:00 2.8 29 Oeste 56 Oeste 0 -- -- 94
2021-02-08 09:00:00 3 40 Oeste 55 Oeste 0.2 -- -- 93
2021-02-08 08:00:00 3.4 21 Oeste 48 Oeste 1 -- -- 93
2021-02-08 07:00:00 4.3 24 Oeste 38 Oeste 0 -- -- 88
2021-02-08 06:00:00 3.4 22 Oeste 37 Oeste 1 -- -- 91
2021-02-08 05:00:00 3.1 18 Sudoeste 34 Sur 0.4 -- -- 88
2021-02-08 04:00:00 3.3 17 Sur 33 Oeste 0.4 -- -- 90
2021-02-08 03:00:00 4 36 Oeste 55 Oeste 2.6 -- -- 92
2021-02-08 02:00:00 5 14 Oeste 32 Oeste 0.4 -- -- 93
2021-02-08 01:00:00 5.4 20 Oeste 38 Sudoeste 0 -- -- 90
2021-02-08 00:00:00 4.3 17 Oeste 36 Oeste 0 -- -- 93
2021-02-07 23:00:00 3.2 26 Oeste 42 Oeste 0 -- -- 93
2021-02-07 22:00:00 2.5 25 Oeste 49 Oeste 0.2 -- -- 93
2021-02-07 21:00:00 2.3 32 Oeste 48 Oeste 0.2 -- -- 92
2021-02-07 20:00:00 2 28 Oeste 46 Oeste 0.4 -- -- 94
2021-02-07 19:00:00 0.8 31 Oeste 49 Oeste 0.6 -- -- 95
2021-02-07 18:00:00 3.8 31 Oeste 45 Oeste 0 -- -- 81
2021-02-07 17:00:00 4 31 Oeste 46 Oeste 0 -- -- 80
2021-02-07 16:00:00 5 30 Oeste 39 Oeste 0 -- -- 72
2021-02-07 15:00:00 4.7 27 Oeste 34 Oeste 0 -- -- 71
2021-02-07 14:00:00 4.7 24 Noroeste 35 Oeste 0.2 -- -- 69
2021-02-07 13:00:00 3.4 25 Noroeste 34 Noroeste 0 -- -- 71
2021-02-07 12:00:00 3.8 22 Noroeste 31 Noroeste 0 -- -- 74
2021-02-07 11:00:00 2.6 16 Noroeste 22 Noroeste 0 -- -- 77
2021-02-07 10:00:00 0.2 14 Noroeste 19 Oeste 0 -- -- 85
2021-02-07 09:00:00 -0.8 15 Noroeste 23 Noroeste 0 -- -- 89
2021-02-07 08:00:00 -1.1 17 Noroeste 24 Noroeste 0 -- -- 91
2021-02-07 07:00:00 -0.8 6 Noroeste 14 Noroeste 0 -- -- 92
2021-02-07 06:00:00 -0.2 13 Noroeste 23 Oeste 0 -- -- 91
2021-02-07 05:00:00 0.5 15 Oeste 23 Oeste 0 -- -- 91
2021-02-07 04:00:00 0.8 17 Noroeste 25 Oeste 0 -- -- 93
2021-02-07 03:00:00 1 14 Oeste 19 Oeste 0 -- -- 94
2021-02-07 02:00:00 1.3 9 Noroeste 17 Oeste 0 -- -- 96
2021-02-07 01:00:00 1.9 10 Noroeste 19 Noroeste 0 -- -- 97
2021-02-07 00:00:00 2.1 13 Noroeste 19 Norte 0.4 -- -- 97
2021-02-06 23:00:00 2.8 9 Norte 16 Norte 0.6 -- -- 97
2021-02-06 22:00:00 2.8 5 Noroeste 11 Noroeste 0.2 -- -- 96
2021-02-06 21:00:00 3.2 9 Noroeste 13 Noroeste 0 -- -- 92
2021-02-06 20:00:00 3.8 7 Noroeste 12 Noroeste 0 -- -- 93
2021-02-06 19:00:00 4.6 7 Noroeste 15 Norte 0 -- -- 90
2021-02-06 18:00:00 4.8 5 Norte 17 Norte 0.6 -- -- 94
2021-02-06 17:00:00 5.8 11 Norte 20 Nordeste 0 -- -- 90
2021-02-06 16:00:00 6 9 Noroeste 20 Noroeste 0.2 -- -- 92
2021-02-06 15:00:00 5.9 6 Sudoeste 13 Oeste 0.8 -- -- 92
2021-02-06 14:00:00 4.9 6 Noroeste 20 Noroeste 3.2 -- -- 94
2021-02-06 13:00:00 6.1 12 Norte 18 Norte 0 -- -- 90
2021-02-06 12:00:00 7.2 8 Sudoeste 14 Sudoeste 0 -- -- 81
2021-02-06 11:00:00 7.5 4 Oeste 9 Noroeste 0 -- -- 80
2021-02-06 10:00:00 7.4 4 Oeste 15 Noroeste 0 -- -- 85
2021-02-06 09:00:00 4.7 3 Noroeste 17 Oeste 0 -- -- 89
2021-02-06 08:00:00 4.9 4 Sudoeste 19 Sur 0 -- -- 86
2021-02-06 07:00:00 4.7 6 Sur 14 Sudeste 0 -- -- 86
2021-02-06 06:00:00 5.3 9 Sur 22 Sudeste 0 -- -- 86
2021-02-06 05:00:00 5.2 14 Sudeste 24 Sur 1.2 -- -- 91
2021-02-06 04:00:00 5.8 13 Sur 21 Sur 0.6 -- -- 91
2021-02-06 03:00:00 6 13 Sudeste 30 Sur 0 -- -- 89
2021-02-06 02:00:00 6.1 14 Sur 36 Sudeste 0 -- -- 86
2021-02-06 01:00:00 5.4 11 Sudeste 42 Sudoeste 1.4 -- -- 89
2021-02-06 00:00:00 7.5 18 Sur 33 Sur 0 -- -- 82
2021-02-05 23:00:00 9 14 Sudoeste 39 Sudoeste 0 -- -- 76
2021-02-05 22:00:00 8.3 13 Sudeste 23 Sudeste 0 -- -- 78
2021-02-05 21:00:00 8.1 14 Sudeste 25 Sudeste 0 -- -- 77
2021-02-05 20:00:00 7.9 9 Sudeste 20 Sudeste 0 -- -- 78
2021-02-05 19:00:00 9.9 12 Sudeste 32 Sur 0 -- -- 71
2021-02-05 18:00:00 11.8 19 Sur 35 Sur 0 -- -- 62
2021-02-05 17:00:00 13.2 14 Sur 26 Sur 0 -- -- 56
2021-02-05 16:00:00 13.6 10 Sur 26 Sur 0 -- -- 55
2021-02-05 15:00:00 13.6 13 Sur 23 Sudeste 0 -- -- 55
2021-02-05 14:00:00 14 9 Sudeste 20 Nordeste 0 -- -- 53
2021-02-05 13:00:00 12.1 14 Norte 19 Nordeste 0 -- -- 68
2021-02-05 12:00:00 10.6 13 Norte 23 Este 0 -- -- 75
2021-02-05 11:00:00 10.3 19 Este 32 Este 0 -- -- 66
2021-02-05 10:00:00 8.9 14 Sudeste 21 Sudeste 0 -- -- 74
2021-02-05 09:00:00 5.9 0 Calma 14 Sudeste 0 -- -- 85
2021-02-05 08:00:00 4.3 10 Sudeste 17 Sudeste 0 -- -- 90
2021-02-05 07:00:00 4.9 11 Sudeste 22 Sudeste 0 -- -- 90
2021-02-05 06:00:00 4.6 12 Sudeste 20 Este 0 -- -- 90
2021-02-05 05:00:00 6.3 9 Este 21 Sudeste 0 -- -- 82
2021-02-05 04:00:00 8.9 10 Sudeste 19 Sur 0 -- -- 70
2021-02-05 03:00:00 8.5 9 Sur 23 Sudeste 0 -- -- 74
2021-02-05 02:00:00 8.6 9 Sudeste 38 Sudoeste 0 -- -- 74
2021-02-05 01:00:00 9.6 26 Sudoeste 46 Oeste 0 -- -- 70
2021-02-05 00:00:00 7.9 22 Sur 36 Sur 0 -- -- 78
2021-02-04 23:00:00 7.4 23 Sudeste 33 Sudeste 0 -- -- 81
2021-02-04 22:00:00 5.5 0 Calma 20 Oeste 0 -- -- 92
2021-02-04 21:00:00 7.4 12 Sudoeste 34 Sur 0 -- -- 78
2021-02-04 20:00:00 7.7 24 Sur 37 Sur 0 -- -- 76
2021-02-04 19:00:00 8.1 20 Sur 34 Sur 0 -- -- 73
2021-02-04 18:00:00 9 24 Sur 39 Sudoeste 0 -- -- 71
2021-02-04 17:00:00 10.3 19 Sudoeste 40 Sur 0 -- -- 66
2021-02-04 16:00:00 10.4 19 Sur 46 Sudoeste 0 -- -- 68
2021-02-04 15:00:00 10.3 25 Sur 45 Sudoeste 0 -- -- 67
2021-02-04 14:00:00 10.1 30 Sudoeste 44 Sudoeste 0 -- -- 68
2021-02-04 13:00:00 9.3 24 Sur 33 Sur 0 -- -- 75
2021-02-04 12:00:00 9.1 12 Sur 26 Sur 0 -- -- 85
2021-02-04 11:00:00 8.9 20 Sur 28 Sur 0 -- -- 86
2021-02-04 10:00:00 7.9 20 Sudeste 30 Sudeste 0 -- -- 95
2021-02-04 09:00:00 5.9 10 Sudeste 15 Sudeste 0 -- -- 98
2021-02-04 08:00:00 5.7 5 Sudeste 9 Sudeste 0 -- -- 98
2021-02-04 07:00:00 5.7 3 Sur 5 Sur 0.2 -- -- 98
2021-02-04 06:00:00 5.7 0 Calma 8 Oeste 0.4 -- -- 97
2021-02-04 05:00:00 5.9 7 Noroeste 12 Noroeste 0 -- -- 97
2021-02-04 04:00:00 6.1 3 Oeste 16 Noroeste 0 -- -- 97
2021-02-04 03:00:00 6.3 14 Noroeste 22 Noroeste 0 -- -- 97
2021-02-04 02:00:00 6.7 8 Noroeste 24 Oeste 0 -- -- 97
2021-02-04 01:00:00 7 13 Noroeste 21 Oeste 0.4 -- -- 97
2021-02-04 00:00:00 7 7 Noroeste 23 Noroeste 0 -- -- 95